Time;durP1;ratioP1;P1;durP2;ratioP2;P2;SDS_P1;SDS_P2;PMS_P1;PMS_P2;Temp;Humidity;BMP_temperature;BMP_pressure;BME280_temperature;BME280_humidity;BME280_pressure;Samples;Min_cycle;Max_cycle;Signal;HPM_P1;HPM_P2
2021/09/09 00:00:55;;;;;;;12.30;7.00;;;;;;;16.07;85.99;98457.34;5018653;28;20021;-74
2021/09/09 00:03:21;;;;;;;13.63;8.15;;;;;;;15.89;85.97;98445.59;5040121;28;20029;-73
2021/09/09 00:05:47;;;;;;;14.25;7.88;;;;;;;15.89;85.83;98448.31;5038429;28;20029;-73
2021/09/09 00:08:12;;;;;;;12.15;7.85;;;;;;;15.72;86.26;98450.22;5034249;28;20487;-74
2021/09/09 00:10:38;;;;;;;13.48;7.45;;;;;;;15.58;86.80;98436.00;5035858;28;20033;-74
2021/09/09 00:13:04;;;;;;;10.40;7.45;;;;;;;15.49;87.65;98451.94;5031679;28;20099;-73
2021/09/09 00:15:29;;;;;;;17.42;8.32;;;;;;;15.53;88.20;98461.25;5011139;28;20029;-73
2021/09/09 00:17:55;;;;;;;12.13;7.75;;;;;;;15.13;87.86;98410.34;5034289;28;20029;-74
2021/09/09 00:20:21;;;;;;;14.60;8.48;;;;;;;15.40;88.72;98456.09;5034851;28;20107;-73
2021/09/09 00:22:47;;;;;;;11.30;8.55;;;;;;;15.30;89.07;98447.72;5036790;28;20033;-74
2021/09/09 00:25:12;;;;;;;11.07;8.43;;;;;;;15.41;88.96;98430.53;5032100;28;20383;-75
2021/09/09 00:27:38;;;;;;;11.88;7.95;;;;;;;15.60;88.75;98461.13;5016946;28;20059;-72
2021/09/09 00:30:04;;;;;;;12.27;8.85;;;;;;;15.62;88.50;98460.91;5034590;28;20042;-74
2021/09/09 00:32:29;;;;;;;15.98;8.63;;;;;;;15.62;88.77;98452.72;5033989;28;20507;-73
2021/09/09 00:34:55;;;;;;;12.82;8.38;;;;;;;15.47;88.82;98431.44;5016775;28;20032;-75
2021/09/09 00:37:20;;;;;;;12.40;8.48;;;;;;;15.41;89.32;98435.16;5034520;28;20026;-73
2021/09/09 00:39:45;;;;;;;10.07;7.65;;;;;;;15.21;90.12;98430.13;5034737;28;20029;-74
2021/09/09 00:42:11;;;;;;;15.25;8.45;;;;;;;15.24;90.30;98441.34;5036036;28;20021;-74
2021/09/09 00:44:36;;;;;;;13.88;8.93;;;;;;;15.31;90.63;98438.50;5015430;28;20198;-74
2021/09/09 00:47:08;;;;;;;12.60;9.02;;;;;;;15.24;90.87;98438.63;5021823;28;20025;-75
2021/09/09 00:49:38;;;;;;;12.38;9.15;;;;;;;15.21;92.02;98449.19;5034497;28;20026;-75
2021/09/09 00:52:05;;;;;;;17.05;9.50;;;;;;;15.34;91.41;98448.91;5034456;28;20483;-74
2021/09/09 00:54:30;;;;;;;16.33;10.40;;;;;;;15.28;91.29;98444.44;5039852;28;20041;-73
2021/09/09 00:56:57;;;;;;;19.95;10.20;;;;;;;15.26;91.76;98443.84;5032593;28;20041;-73
2021/09/09 00:59:23;;;;;;;17.65;9.82;;;;;;;15.04;92.47;98419.19;5041826;28;20052;-74
2021/09/09 01:01:48;;;;;;;13.13;9.18;;;;;;;15.05;92.09;98426.28;5033958;28;20075;-74
2021/09/09 01:04:15;;;;;;;17.00;10.85;;;;;;;15.16;92.05;98443.66;5014343;28;20118;-74
2021/09/09 01:06:40;;;;;;;13.70;9.90;;;;;;;15.16;92.33;98449.09;5016778;28;20025;-73
2021/09/09 01:09:06;;;;;;;15.48;9.95;;;;;;;15.06;91.37;98428.75;5034763;28;20371;-74
2021/09/09 01:11:31;;;;;;;13.65;8.52;;;;;;;15.05;90.92;98429.00;5013393;28;20052;-75
2021/09/09 01:14:08;;;;;;;12.40;8.38;;;;;;;15.22;90.45;98434.50;5040050;28;20045;-73
2021/09/09 01:16:35;;;;;;;13.70;9.10;;;;;;;15.19;90.65;98437.72;5033449;28;20096;-74
2021/09/09 01:19:01;;;;;;;17.88;9.20;;;;;;;15.23;90.30;98437.00;5033468;28;20517;-74
2021/09/09 01:21:26;;;;;;;15.55;9.77;;;;;;;15.32;90.94;98431.97;5015599;28;20033;-73
2021/09/09 01:23:56;;;;;;;12.98;8.95;;;;;;;15.44;89.55;98440.94;5036059;28;20079;-73
2021/09/09 01:26:24;;;;;;;11.85;8.70;;;;;;;15.38;89.65;98425.56;5024905;28;20025;-74
2021/09/09 01:28:49;;;;;;;11.85;8.20;;;;;;;15.34;89.87;98424.38;5051190;28;20025;-74
2021/09/09 01:31:16;;;;;;;13.75;8.65;;;;;;;15.27;90.27;98424.53;5053729;28;20039;-74
2021/09/09 01:33:41;;;;;;;15.65;9.52;;;;;;;15.12;91.12;98418.78;5037597;28;20048;-74
2021/09/09 01:36:07;;;;;;;14.70;9.15;;;;;;;15.08;92.16;98431.22;5049231;28;20076;-74
2021/09/09 01:38:32;;;;;;;14.38;9.70;;;;;;;15.12;91.85;98419.63;5033597;28;20084;-73
2021/09/09 01:40:57;;;;;;;16.65;9.88;;;;;;;15.09;92.42;98425.56;5015706;28;20026;-72
2021/09/09 01:43:23;;;;;;;13.45;8.80;;;;;;;15.10;92.56;98432.66;5033393;28;20030;-74
2021/09/09 01:45:48;;;;;;;14.48;9.07;;;;;;;15.02;93.16;98430.31;5035246;28;20036;-73
2021/09/09 01:48:13;;;;;;;11.80;8.55;;;;;;;14.65;93.42;98368.00;5017817;28;20095;-74
2021/09/09 01:50:39;;;;;;;13.88;9.68;;;;;;;15.04;93.53;98428.16;5015318;28;20471;-74
2021/09/09 01:53:05;;;;;;;15.48;9.45;;;;;;;15.00;94.25;98409.81;5014378;28;20449;-74
2021/09/09 01:55:30;;;;;;;14.80;10.23;;;;;;;15.08;93.98;98415.69;5034417;28;20056;-73
2021/09/09 01:57:55;;;;;;;16.23;9.77;;;;;;;14.93;94.17;98396.31;5032672;28;20029;-73
2021/09/09 02:00:21;;;;;;;12.30;9.55;;;;;;;14.98;94.56;98409.22;5033709;28;20029;-74
2021/09/09 02:02:46;;;;;;;15.10;10.05;;;;;;;14.99;94.43;98398.09;5034109;28;20029;-73
2021/09/09 02:05:12;;;;;;;18.98;11.02;;;;;;;15.01;94.38;98397.84;5035069;28;20017;-74
2021/09/09 02:07:38;;;;;;;13.48;8.57;;;;;;;15.10;93.73;98408.13;5015089;28;20167;-74
2021/09/09 02:10:04;;;;;;;16.02;10.25;;;;;;;15.08;93.91;98406.72;5035189;28;20104;-73
2021/09/09 02:12:30;;;;;;;15.25;9.75;;;;;;;15.15;94.07;98398.41;5032355;28;20037;-75
2021/09/09 02:14:55;;;;;;;14.70;9.63;;;;;;;15.15;94.08;98404.69;5030299;28;20063;-74
2021/09/09 02:17:20;;;;;;;14.05;9.55;;;;;;;15.21;94.05;98409.16;5033243;28;20395;-73
2021/09/09 02:19:46;;;;;;;15.32;9.38;;;;;;;15.11;93.87;98381.69;5011390;28;20124;-73
2021/09/09 02:22:11;;;;;;;14.10;10.18;;;;;;;15.28;93.89;98409.00;5013044;28;20029;-73
2021/09/09 02:24:36;;;;;;;21.88;10.15;;;;;;;15.32;93.59;98404.72;5020398;28;20021;-74
2021/09/09 02:27:02;;;;;;;15.68;9.52;;;;;;;15.21;93.67;98391.97;5046929;28;20033;-74
2021/09/09 02:29:27;;;;;;;17.10;9.73;;;;;;;15.33;93.45;98400.94;5014399;28;20061;-73
2021/09/09 02:31:53;;;;;;;12.02;8.93;;;;;;;15.31;93.16;98405.78;5011606;28;20052;-72
2021/09/09 02:34:18;;;;;;;12.20;9.07;;;;;;;15.31;93.11;98397.63;5029621;28;20025;-72
2021/09/09 02:36:43;;;;;;;14.15;9.25;;;;;;;15.26;93.02;98401.06;5039878;28;20497;-73
2021/09/09 02:39:08;;;;;;;11.20;8.05;;;;;;;15.31;92.62;98403.06;5033350;28;20112;-72
2021/09/09 02:41:34;;;;;;;11.75;8.25;;;;;;;15.27;92.03;98413.66;5014713;28;20021;-72
2021/09/09 02:43:59;;;;;;;15.65;9.02;;;;;;;15.20;92.71;98420.31;5032368;28;20083;-72
2021/09/09 02:46:24;;;;;;;12.60;8.88;;;;;;;15.03;92.53;98388.34;5032077;28;20027;-72
2021/09/09 02:48:50;;;;;;;12.90;9.27;;;;;;;14.98;92.49;98399.16;5032730;28;20029;-73
2021/09/09 02:51:15;;;;;;;11.68;8.52;;;;;;;15.01;93.24;98406.88;5034662;28;20490;-72
2021/09/09 02:53:40;;;;;;;16.98;9.07;;;;;;;14.94;93.97;98392.53;5036638;28;20037;-72
2021/09/09 02:56:06;;;;;;;17.40;9.75;;;;;;;14.82;94.09;98362.59;5038632;28;20029;-73
2021/09/09 02:58:31;;;;;;;15.88;9.25;;;;;;;15.01;94.56;98401.41;5032399;28;20032;-72
2021/09/09 03:00:56;;;;;;;14.55;8.63;;;;;;;14.94;93.66;98392.53;5028092;28;20033;-72
2021/09/09 03:03:22;;;;;;;14.77;9.45;;;;;;;14.86;93.65;98368.41;5033946;28;20029;-72
2021/09/09 03:05:47;;;;;;;15.43;8.90;;;;;;;14.92;93.42;98378.34;5014170;28;20635;-73
2021/09/09 03:08:13;;;;;;;14.43;8.75;;;;;;;14.90;93.47;98380.47;5014432;28;20029;-72
2021/09/09 03:10:38;;;;;;;13.70;9.00;;;;;;;14.85;93.19;98397.53;5031952;28;20029;-72
2021/09/09 03:13:03;;;;;;;18.40;9.60;;;;;;;14.80;94.44;98389.28;5014066;28;20021;-72
2021/09/09 03:15:29;;;;;;;14.77;9.15;;;;;;;14.69;95.08;98365.59;5031729;28;20475;-73
2021/09/09 03:17:54;;;;;;;14.73;9.85;;;;;;;14.72;95.10;98369.75;5032107;28;20034;-73
2021/09/09 03:20:19;;;;;;;13.27;9.27;;;;;;;14.73;94.82;98374.16;5013145;28;20029;-72
2021/09/09 03:22:45;;;;;;;14.13;8.75;;;;;;;14.74;94.19;98375.78;5031345;28;20056;-72
2021/09/09 03:25:10;;;;;;;13.45;8.65;;;;;;;14.76;93.79;98382.66;5031465;28;20022;-73
2021/09/09 03:27:36;;;;;;;17.38;9.40;;;;;;;14.87;93.97;98391.84;5014148;28;20029;-72
2021/09/09 03:30:02;;;;;;;13.77;8.57;;;;;;;14.83;93.58;98374.34;5031829;28;20395;-73
2021/09/09 03:32:27;;;;;;;14.45;9.30;;;;;;;14.78;94.08;98361.44;5031091;28;20037;-73
2021/09/09 03:34:53;;;;;;;14.40;9.15;;;;;;;14.71;94.83;98357.22;5031761;28;20041;-72
2021/09/09 03:37:18;;;;;;;15.38;9.48;;;;;;;14.76;95.03;98365.50;5034410;28;20038;-72
2021/09/09 03:39:43;;;;;;;12.40;8.73;;;;;;;14.69;93.86;98336.47;5023464;28;20545;-72
2021/09/09 03:42:09;;;;;;;13.52;9.85;;;;;;;15.08;93.86;98358.47;5045835;28;20076;-73
2021/09/09 03:44:34;;;;;;;11.98;9.00;;;;;;;15.16;92.95;98354.53;5014113;28;20048;-72
2021/09/09 03:46:59;;;;;;;16.02;9.30;;;;;;;15.20;92.16;98363.91;5014159;28;20143;-72
2021/09/09 03:49:25;;;;;;;11.73;8.52;;;;;;;15.17;91.94;98363.53;5031680;28;20387;-72
2021/09/09 03:51:50;;;;;;;13.50;8.25;;;;;;;15.12;92.02;98373.28;5031580;28;20029;-72
2021/09/09 03:54:15;;;;;;;14.43;9.48;;;;;;;15.10;93.07;98378.16;5031062;28;20030;-72
2021/09/09 03:56:40;;;;;;;11.57;8.00;;;;;;;15.03;92.53;98388.34;5014075;28;20060;-72
2021/09/09 03:59:06;;;;;;;13.60;8.73;;;;;;;14.93;91.81;98381.88;5032664;28;20041;-72
2021/09/09 04:01:31;;;;;;;11.60;8.35;;;;;;;14.71;91.12;98354.50;5031858;28;20104;-72
2021/09/09 04:03:56;;;;;;;9.77;7.38;;;;;;;14.78;91.58;98385.97;5032205;28;20109;-72
2021/09/09 04:06:22;;;;;;;11.43;8.13;;;;;;;14.78;92.40;98383.25;5016101;28;20484;-73
2021/09/09 04:08:47;;;;;;;11.55;8.63;;;;;;;14.73;92.67;98358.63;5031383;28;20045;-73
2021/09/09 04:11:12;;;;;;;15.40;8.70;;;;;;;14.62;92.78;98362.22;5014220;28;20033;-73
2021/09/09 04:13:38;;;;;;;14.40;7.72;;;;;;;14.71;92.62;98381.72;5030846;28;20437;-73
2021/09/09 04:16:04;;;;;;;11.88;7.85;;;;;;;14.67;91.64;98390.38;5010974;28;20064;-73
2021/09/09 04:18:29;;;;;;;13.68;8.77;;;;;;;14.71;92.71;98387.16;5017905;28;20017;-73
2021/09/09 04:20:55;;;;;;;12.10;8.02;;;;;;;14.68;93.42;98381.13;5040592;28;20059;-73
2021/09/09 04:23:20;;;;;;;13.70;8.40;;;;;;;14.66;93.19;98377.81;5009874;28;20033;-73
2021/09/09 04:25:45;;;;;;;13.40;8.85;;;;;;;14.78;93.24;98379.69;5012137;28;20115;-71
2021/09/09 04:28:10;;;;;;;11.77;8.40;;;;;;;14.88;92.79;98393.50;5029246;28;20135;-73
2021/09/09 04:30:36;;;;;;;13.07;8.25;;;;;;;14.79;93.45;98349.47;5017222;28;20041;-72
2021/09/09 04:33:01;;;;;;;12.32;8.77;;;;;;;15.10;92.61;98383.59;5034417;28;20102;-72
2021/09/09 04:35:26;;;;;;;15.02;9.43;;;;;;;15.17;92.31;98375.28;5017199;28;20036;-72
2021/09/09 04:37:52;;;;;;;11.57;8.32;;;;;;;15.28;92.32;98376.31;5034786;28;20029;-72
2021/09/09 04:40:17;;;;;;;12.85;8.50;;;;;;;15.41;91.79;98381.44;5031364;28;20029;-73
2021/09/09 04:42:42;;;;;;;15.35;9.05;;;;;;;15.54;90.71;98383.88;5026966;28;20021;-74
2021/09/09 04:45:08;;;;;;;11.55;8.13;;;;;;;15.51;90.23;98362.56;5035450;28;20026;-75
2021/09/09 04:47:35;;;;;;;16.40;8.57;;;;;;;15.51;89.45;98369.88;5033820;28;20482;-75
2021/09/09 04:50:00;;;;;;;10.70;8.20;;;;;;;15.49;89.96;98367.41;5016707;28;20087;-76
2021/09/09 04:52:25;;;;;;;14.82;9.35;;;;;;;15.47;90.05;98382.38;5031157;28;20025;-75
2021/09/09 04:54:50;;;;;;;11.73;8.73;;;;;;;15.41;90.40;98370.56;5034265;28;20033;-75
2021/09/09 04:57:16;;;;;;;14.50;9.40;;;;;;;15.36;91.16;98367.72;5033870;28;20415;-75
2021/09/09 04:59:41;;;;;;;11.63;8.43;;;;;;;15.46;90.60;98388.91;5014569;28;20025;-76
2021/09/09 05:02:06;;;;;;;12.32;8.77;;;;;;;15.42;90.68;98358.56;5011561;28;20065;-74
2021/09/09 05:04:32;;;;;;;16.55;8.30;;;;;;;15.45;90.76;98379.88;5032783;28;20026;-75
2021/09/09 05:06:57;;;;;;;13.02;8.85;;;;;;;15.61;90.64;98391.88;5028854;28;20030;-75
2021/09/09 05:09:22;;;;;;;14.77;9.20;;;;;;;15.55;89.61;98385.50;5005780;28;20033;-76
2021/09/09 05:11:48;;;;;;;14.77;8.60;;;;;;;15.63;89.20;98394.38;5026647;28;20025;-75
2021/09/09 05:14:13;;;;;;;16.60;7.80;;;;;;;15.60;88.25;98371.16;5033452;28;20028;-76
2021/09/09 05:16:38;;;;;;;10.70;8.43;;;;;;;15.43;87.82;98383.91;5015176;28;20025;-75
2021/09/09 05:19:04;;;;;;;13.65;7.82;;;;;;;15.28;87.83;98379.03;5022245;28;20033;-77
2021/09/09 05:21:29;;;;;;;13.07;8.02;;;;;;;15.29;88.45;98381.50;5026554;28;20359;-76
2021/09/09 05:23:54;;;;;;;13.15;7.88;;;;;;;15.38;88.78;98394.72;5034549;28;20026;-76
2021/09/09 05:26:20;;;;;;;10.90;8.25;;;;;;;15.44;89.27;98402.78;5035084;28;20076;-74
2021/09/09 05:28:45;;;;;;;18.08;9.43;;;;;;;15.51;89.70;98403.44;5015255;28;20111;-75
2021/09/09 05:31:10;;;;;;;14.75;8.38;;;;;;;15.66;89.01;98412.97;5031743;28;20432;-75
2021/09/09 05:33:36;;;;;;;12.32;8.57;;;;;;;15.71;88.39;98407.63;5015654;28;20068;-75
2021/09/09 05:36:01;;;;;;;13.10;8.70;;;;;;;15.83;88.11;98411.13;5032762;28;20514;-74
2021/09/09 05:38:26;;;;;;;14.38;8.43;;;;;;;16.16;86.66;98406.72;5031873;28;20117;-72
2021/09/09 05:40:51;;;;;;;12.13;8.07;;;;;;;16.60;83.33;98383.06;5012810;28;20037;-71
2021/09/09 05:43:17;;;;;;;10.98;8.23;;;;;;;17.58;79.26;98395.13;5032749;28;20391;-72
2021/09/09 05:45:43;;;;;;;14.77;8.25;;;;;;;17.84;78.03;98401.69;5033408;28;20031;-71
2021/09/09 05:48:08;;;;;;;15.07;8.10;;;;;;;18.09;77.05;98415.59;5033181;28;20036;-71
2021/09/09 05:50:34;;;;;;;11.25;7.30;;;;;;;19.39;71.95;98408.66;5015560;28;20532;-71
2021/09/09 05:52:59;;;;;;;15.43;8.25;;;;;;;20.91;65.10;98402.59;5033053;28;20106;-71
2021/09/09 05:55:26;;;;;;;10.45;6.75;;;;;;;22.34;60.28;98409.16;5032751;28;20547;-72
2021/09/09 05:57:51;;;;;;;13.00;7.38;;;;;;;23.22;56.69;98409.84;5007558;28;20109;-72
2021/09/09 06:00:17;;;;;;;10.73;7.05;;;;;;;23.52;56.34;98411.38;5031542;28;20022;-74
2021/09/09 06:02:44;;;;;;;11.60;6.80;;;;;;;24.07;53.00;98397.84;5027683;28;20057;-76
2021/09/09 06:05:12;;;;;;;10.55;7.22;;;;;;;24.71;51.73;98401.72;5032144;28;20434;-74
2021/09/09 06:07:37;;;;;;;10.57;7.18;;;;;;;25.22;50.10;98402.66;5017479;28;20108;-72
2021/09/09 06:10:03;;;;;;;10.55;7.03;;;;;;;25.68;49.11;98400.81;5033004;28;20061;-74
2021/09/09 06:12:29;;;;;;;9.82;7.00;;;;;;;26.25;48.50;98398.31;5033414;28;20399;-77
2021/09/09 06:14:54;;;;;;;9.02;6.70;;;;;;;26.54;47.37;98410.94;5031815;28;20029;-73
2021/09/09 06:17:19;;;;;;;14.18;7.03;;;;;;;26.80;46.95;98406.34;5033141;28;20107;-73
2021/09/09 06:19:45;;;;;;;12.23;6.72;;;;;;;27.39;45.73;98416.34;5033146;28;20031;-77
2021/09/09 06:22:10;;;;;;;9.57;6.57;;;;;;;28.14;42.77;98392.06;5015140;28;20045;-75
2021/09/09 06:24:35;;;;;;;10.57;6.30;;;;;;;28.22;42.78;98394.00;5014687;28;20059;-76
2021/09/09 06:27:01;;;;;;;10.57;6.70;;;;;;;28.82;40.93;98401.38;5015519;28;20072;-76
2021/09/09 06:29:26;;;;;;;7.95;6.22;;;;;;;29.91;39.53;98391.41;5032894;28;20475;-75
2021/09/09 06:31:51;;;;;;;9.57;6.68;;;;;;;30.04;39.20;98402.63;5020782;28;20029;-76
2021/09/09 06:34:16;;;;;;;14.65;7.28;;;;;;;29.85;39.43;98403.13;5032157;28;20125;-76
2021/09/09 06:36:42;;;;;;;9.80;6.40;;;;;;;29.83;39.35;98411.81;5032286;28;20029;-75
2021/09/09 06:39:08;;;;;;;8.48;6.20;;;;;;;28.71;42.18;98422.38;5014521;28;20395;-72
2021/09/09 06:41:34;;;;;;;9.18;6.55;;;;;;;28.66;41.91;98414.19;5031217;28;20393;-71
2021/09/09 06:43:59;;;;;;;9.02;6.57;;;;;;;29.25;40.38;98416.28;5031243;28;20040;-72
2021/09/09 06:46:24;;;;;;;9.13;6.22;;;;;;;30.11;39.08;98419.63;5031640;28;20038;-74
2021/09/09 06:48:50;;;;;;;11.07;5.85;;;;;;;30.35;39.18;98410.56;5031658;28;20021;-71
2021/09/09 06:51:19;;;;;;;10.00;6.25;;;;;;;30.40;38.47;98403.94;5031558;28;20055;-76
2021/09/09 06:53:44;;;;;;;;;;;;;;;31.19;37.10;98415.84;5032900;28;20033;-76
2021/09/09 06:56:09;;;;;;;10.27;5.63;;;;;;;31.94;35.74;98409.84;5013261;28;19924;-76
2021/09/09 06:58:34;;;;;;;10.40;6.45;;;;;;;32.21;35.29;98413.00;5031287;28;20282;-74
2021/09/09 07:01:00;;;;;;;12.65;5.97;;;;;;;33.03;34.23;98417.22;5013426;28;20454;-76
2021/09/09 07:03:29;;;;;;;9.15;5.30;;;;;;;33.51;33.06;98416.00;5031403;28;20032;-75
2021/09/09 07:05:54;;;;;;;12.27;6.15;;;;;;;33.36;32.76;98400.81;5031013;28;20401;-75
2021/09/09 07:08:20;;;;;;;7.70;5.40;;;;;;;32.44;33.96;98388.84;5032246;28;20037;-75
2021/09/09 07:10:45;;;;;;;8.90;6.05;;;;;;;33.06;33.33;98394.06;5022726;28;20040;-75
2021/09/09 07:13:10;;;;;;;8.45;5.65;;;;;;;34.26;31.33;98406.41;5032402;28;20025;-72
2021/09/09 07:15:38;;;;;;;6.80;5.03;;;;;;;35.16;29.99;98405.25;5031910;28;20025;-73
2021/09/09 07:18:03;;;;;;;9.82;5.47;;;;;;;35.20;29.74;98400.50;5031120;28;20372;-72
2021/09/09 07:20:29;;;;;;;8.07;5.40;;;;;;;34.50;30.99;98412.88;5030399;28;20029;-72
2021/09/09 07:22:54;;;;;;;9.38;5.47;;;;;;;34.09;31.17;98417.28;5032391;28;20029;-72
2021/09/09 07:25:19;;;;;;;13.10;5.13;;;;;;;34.51;30.89;98402.44;5032602;28;20051;-72
2021/09/09 07:27:44;;;;;;;6.88;4.82;;;;;;;34.39;30.74;98420.28;5036971;28;20465;-71
2021/09/09 07:30:11;;;;;;;6.25;4.78;;;;;;;35.16;30.04;98404.44;5036524;28;20052;-71
2021/09/09 07:32:37;;;;;;;8.90;5.30;;;;;;;35.23;29.91;98410.19;5031460;28;20391;-72
2021/09/09 07:35:04;;;;;;;6.25;4.72;;;;;;;35.53;28.88;98411.06;5015444;28;20034;-72
2021/09/09 07:37:29;;;;;;;5.95;4.57;;;;;;;35.42;29.55;98406.47;5031171;28;20040;-72
2021/09/09 07:39:55;;;;;;;7.05;4.90;;;;;;;34.82;30.20;98413.50;5031892;28;20029;-72
2021/09/09 07:42:20;;;;;;;6.32;4.93;;;;;;;33.54;31.85;98406.06;5031848;28;20069;-72
2021/09/09 07:44:45;;;;;;;6.15;4.70;;;;;;;33.48;31.85;98401.88;5031571;28;20467;-71
2021/09/09 07:47:11;;;;;;;6.32;5.03;;;;;;;35.21;29.32;98409.75;5033312;28;20069;-73
2021/09/09 07:49:36;;;;;;;8.30;4.53;;;;;;;35.01;30.64;98415.44;5013700;28;20032;-72
2021/09/09 07:52:02;;;;;;;6.80;4.43;;;;;;;34.21;29.79;98431.16;5031487;28;20088;-71
2021/09/09 07:54:27;;;;;;;9.50;4.75;;;;;;;33.90;31.05;98429.28;5029810;28;20476;-72
2021/09/09 07:56:52;;;;;;;6.30;4.82;;;;;;;34.80;28.83;98424.31;5031880;28;20036;-73
2021/09/09 07:59:18;;;;;;;7.68;5.13;;;;;;;33.53;30.90;98410.81;5014588;28;20030;-72
2021/09/09 08:01:46;;;;;;;7.65;4.93;;;;;;;34.12;30.60;98430.59;5031597;28;20033;-72
2021/09/09 08:04:16;;;;;;;7.55;4.95;;;;;;;34.48;29.80;98420.88;5030978;28;20025;-72
2021/09/09 08:06:44;;;;;;;8.50;5.25;;;;;;;35.37;28.47;98402.00;5033751;28;20034;-73
2021/09/09 08:09:10;;;;;;;;;;;;;;;35.12;29.51;98427.69;5038505;28;20480;-71
2021/09/09 08:11:36;;;;;;;7.80;4.60;;;;;;;34.40;29.52;98438.75;5036368;28;19919;-72
2021/09/09 08:14:01;;;;;;;8.48;5.13;;;;;;;33.81;31.10;98433.13;5031796;28;20438;-72
2021/09/09 08:16:27;;;;;;;11.48;5.38;;;;;;;33.20;31.94;98433.69;5044935;28;20120;-72
2021/09/09 08:18:52;;;;;;;11.95;5.32;;;;;;;34.63;30.04;98442.47;5034839;28;20026;-72
2021/09/09 08:21:17;;;;;;;11.10;5.00;;;;;;;34.92;30.04;98437.34;5030634;28;20407;-72
2021/09/09 08:23:43;;;;;;;7.60;5.20;;;;;;;34.24;30.99;98445.31;5030532;28;20037;-72
2021/09/09 08:26:09;;;;;;;9.48;4.88;;;;;;;34.39;30.32;98446.38;5038994;28;20021;-73
2021/09/09 08:28:35;;;;;;;6.15;5.00;;;;;;;34.83;29.53;98448.06;5035053;28;20048;-71
2021/09/09 08:31:00;;;;;;;10.55;4.93;;;;;;;35.81;28.49;98429.56;5037330;28;20063;-72
2021/09/09 08:33:25;;;;;;;7.25;4.60;;;;;;;34.82;29.78;98443.59;5017446;28;20064;-72
2021/09/09 08:35:51;;;;;;;7.97;4.65;;;;;;;35.58;28.92;98443.72;5035490;28;20084;-72
2021/09/09 08:38:16;;;;;;;8.85;5.13;;;;;;;34.02;31.46;98448.81;5038460;28;20479;-72
2021/09/09 08:40:42;;;;;;;6.90;4.47;;;;;;;32.12;34.04;98451.50;5041043;28;20026;-71
2021/09/09 08:43:08;;;;;;;7.30;4.63;;;;;;;30.23;37.37;98450.38;5050083;28;20399;-71
2021/09/09 08:45:34;;;;;;;7.45;5.15;;;;;;;29.33;39.53;98465.56;5050558;28;20071;-72
2021/09/09 08:48:03;;;;;;;5.95;4.53;;;;;;;30.18;38.31;98453.34;5054669;28;20031;-72
2021/09/09 08:50:28;;;;;;;;;;;;;;;31.65;35.56;98459.28;5053508;28;20065;-72
2021/09/09 08:52:54;;;;;;;6.38;5.30;;;;;;;33.28;33.08;98459.91;5034845;28;19928;-72
2021/09/09 08:55:20;;;;;;;5.57;4.47;;;;;;;35.44;29.49;98449.09;5042408;28;20437;-72
2021/09/09 08:57:45;;;;;;;5.88;4.55;;;;;;;37.07;27.65;98445.97;5040255;28;20040;-72
2021/09/09 09:00:11;;;;;;;10.48;4.90;;;;;;;37.12;26.90;98456.91;5036121;28;20041;-72
2021/09/09 09:02:49;;;;;;;7.40;4.70;;;;;;;36.33;27.78;98458.84;5035841;28;20022;-73
2021/09/09 09:05:15;;;;;;;8.13;5.10;;;;;;;34.73;30.01;98466.34;5035086;28;20045;-72
2021/09/09 09:07:40;;;;;;;9.82;4.72;;;;;;;34.15;31.01;98464.34;5034950;28;20126;-72
2021/09/09 09:10:07;;;;;;;11.45;4.88;;;;;;;34.13;30.97;98461.09;5035235;28;20103;-73
2021/09/09 09:12:51;;;;;;;7.20;4.78;;;;;;;34.76;30.18;98461.97;5033659;28;20025;-72
2021/09/09 09:15:28;;;;;;;6.85;4.40;;;;;;;37.26;27.05;98459.84;5019719;28;20116;-73
2021/09/09 09:17:54;;;;;;;11.32;4.65;;;;;;;36.97;27.25;98461.59;5034062;28;20430;-73
2021/09/09 09:20:20;;;;;;;6.35;4.50;;;;;;;36.48;27.05;98457.00;5031036;28;20391;-71
2021/09/09 09:22:46;;;;;;;7.32;4.78;;;;;;;34.06;30.43;98444.13;5045491;28;20100;-73
2021/09/09 09:25:11;;;;;;;7.90;4.50;;;;;;;33.79;30.88;98457.09;5037462;28;20025;-72
2021/09/09 09:27:49;;;;;;;7.80;4.03;;;;;;;36.34;27.64;98457.66;5043300;28;20032;-72
2021/09/09 09:30:15;;;;;;;8.30;5.18;;;;;;;37.45;26.45;98450.31;5031894;28;20386;-71
2021/09/09 09:32:46;;;;;;;5.15;4.47;;;;;;;38.37;25.96;98452.06;5035596;28;20459;-73
2021/09/09 09:35:17;;;;;;;7.03;4.07;;;;;;;38.63;24.42;98452.19;5034614;28;20487;-72
2021/09/09 09:38:07;;;;;;;8.50;4.53;;;;;;;38.72;25.02;98452.59;5033859;28;20022;-72
2021/09/09 09:40:42;;;;;;;6.80;3.90;;;;;;;39.98;24.33;98445.75;5034548;28;20032;-72
2021/09/09 09:43:09;;;;;;;8.27;3.95;;;;;;;40.16;22.84;98453.38;5033401;28;20021;-73
2021/09/09 09:45:35;;;;;;;10.75;4.00;;;;;;;38.80;23.86;98440.09;5015272;28;20017;-73
2021/09/09 09:48:00;;;;;;;5.28;3.63;;;;;;;38.89;23.70;98459.56;5034658;28;20070;-73
2021/09/09 09:50:26;;;;;;;5.22;3.22;;;;;;;38.47;24.00;98450.53;5035050;28;20024;-73
2021/09/09 09:53:16;;;;;;;4.10;3.28;;;;;;;38.08;24.39;98451.16;5034960;28;20057;-72
2021/09/09 09:55:42;;;;;;;7.00;3.40;;;;;;;38.79;23.90;98450.59;5022027;28;20045;-73
2021/09/09 09:58:08;;;;;;;4.70;3.20;;;;;;;39.08;23.05;98447.84;5032980;28;20498;-73
2021/09/09 10:00:34;;;;;;;6.55;3.15;;;;;;;39.28;23.98;98455.94;5042448;28;20033;-72
2021/09/09 10:02:59;;;;;;;6.65;3.25;;;;;;;39.81;22.56;98450.25;5035637;28;20040;-73
2021/09/09 10:05:24;;;;;;;5.57;3.63;;;;;;;39.54;22.97;98454.72;5033757;28;20068;-73
2021/09/09 10:07:50;;;;;;;5.10;3.40;;;;;;;40.44;22.13;98447.63;5037531;28;20112;-73
2021/09/09 10:10:16;;;;;;;5.70;3.47;;;;;;;39.29;23.64;98452.69;5030956;28;20376;-73
2021/09/09 10:12:44;;;;;;;7.25;3.97;;;;;;;38.70;24.39;98457.84;5034151;28;20057;-73
2021/09/09 10:15:12;;;;;;;5.43;3.80;;;;;;;39.65;23.04;98444.19;5028281;28;20025;-74
2021/09/09 10:17:40;;;;;;;3.95;3.50;;;;;;;40.28;22.47;98450.94;5022534;28;20033;-72
2021/09/09 10:20:29;;;;;;;5.13;3.65;;;;;;;40.06;23.69;98449.34;5030321;28;20036;-73
2021/09/09 10:23:01;;;;;;;5.57;3.20;;;;;;;41.10;22.80;98449.66;5028734;28;20462;-73
2021/09/09 10:25:49;;;;;;;7.40;3.45;;;;;;;42.63;21.23;98443.59;5028916;28;20036;-73
2021/09/09 10:28:38;;;;;;;8.38;3.83;;;;;;;38.96;23.82;98449.06;5029623;28;20025;-71
2021/09/09 10:31:19;;;;;;;7.22;3.83;;;;;;;37.52;26.64;98441.13;5027216;28;20029;-71
2021/09/09 10:33:46;;;;;;;10.18;4.20;;;;;;;36.15;28.32;98438.09;5029258;28;20029;-73
2021/09/09 10:36:44;;;;;;;6.53;4.13;;;;;;;34.86;30.53;98447.28;5028708;28;20037;-70
2021/09/09 10:39:13;;;;;;;6.93;3.83;;;;;;;36.14;29.60;98442.09;5034218;28;20048;-73
2021/09/09 10:41:40;;;;;;;7.07;3.72;;;;;;;35.83;30.19;98441.25;5028176;28;20126;-73
2021/09/09 10:44:08;;;;;;;6.22;3.92;;;;;;;35.71;28.67;98436.69;5032502;28;20068;-72
2021/09/09 10:46:36;;;;;;;;;;;;;;;35.66;29.38;98439.00;5019887;28;20022;-73
2021/09/09 10:49:05;;;;;;;;;;;;;;;36.77;28.31;98426.34;5029853;28;19917;-72
2021/09/09 10:51:31;;;;;;;5.85;3.50;;;;;;;36.93;28.91;98434.53;5011252;28;20363;-73
2021/09/09 10:53:58;;;;;;;5.38;4.00;;;;;;;35.60;30.16;98440.53;5010124;28;20036;-73
2021/09/09 10:56:33;;;;;;;9.68;3.72;;;;;;;34.79;31.03;98433.91;5029704;28;20104;-72
2021/09/09 10:59:10;;;;;;;9.02;4.00;;;;;;;34.71;30.77;98434.16;5034274;28;20372;-72
2021/09/09 11:01:37;;;;;;;6.40;3.85;;;;;;;35.30;30.01;98435.63;5028064;28;20164;-73
2021/09/09 11:04:02;;;;;;;5.40;3.83;;;;;;;36.76;29.16;98422.72;5028729;28;20569;-73
2021/09/09 11:06:29;;;;;;;8.38;4.00;;;;;;;36.95;28.50;98432.16;5033755;28;20033;-72
2021/09/09 11:08:57;;;;;;;6.97;3.38;;;;;;;38.60;26.05;98430.38;5046762;28;20495;-73
2021/09/09 11:11:24;;;;;;;5.30;3.50;;;;;;;38.16;25.34;98420.91;5028931;28;20040;-72
2021/09/09 11:14:05;;;;;;;6.33;3.67;;;;;;;37.51;26.10;98422.56;5028785;28;20518;-72
2021/09/09 11:16:33;;;;;;;9.50;3.88;;;;;;;35.65;28.03;98426.13;5024401;28;20064;-72
2021/09/09 11:19:00;;;;;;;7.40;3.63;;;;;;;35.93;28.21;98403.19;5029069;28;20025;-72
2021/09/09 11:21:31;;;;;;;7.57;3.55;;;;;;;35.76;28.98;98413.00;5025779;28;20033;-72
2021/09/09 11:24:02;;;;;;;4.68;3.40;;;;;;;34.59;30.14;98416.31;5021256;28;20120;-72
2021/09/09 11:26:28;;;;;;;3.78;3.35;;;;;;;35.93;29.06;98409.63;5020007;28;20507;-72